KDWH/DWH METAR and TAF weather

Enter ICAO airport designator
Station Type Date Time Source
KDWH METAR 2018/06/25 16:53 UTC NOAA

KDWH 251653Z 20004KT 10SM BKN041 30/24 A3002 RMK AO2 LTG DSNT E AND SE AND NW TSE13 SLP164 T03000239


Station Type Date Time Source
KDWH Decoded METAR 2018/06/25 16:53 UTC NOAA

HOUSTON HOOKS MEMORIAL, TX, United States (KDWH) 30-04N 95-33W 46M
Jun 25, 2018 - 12:53 PM EDT / 2018.06.25 1653 UTC
Wind: from the SSW (200 degrees) at 5 MPH (4 KT):0
Visibility: 10 mile(s):0
Sky conditions: mostly cloudy
Weather: Lightning observed
Temperature: 86.0 F (30.0 C)
Heat index: 94.6 F (34.8 C):1
Dew Point: 75.0 F (23.9 C)
Relative Humidity: 69%
Pressure (altimeter): 30.02 in. Hg (1016 hPa)
ob: KDWH 251653Z 20004KT 10SM BKN041 30/24 A3002 RMK AO2 LTG DSNT E AND SE AND NW TSE13 SLP164 T03000239
cycle: 17

Station Type Date Time Source
KDWH TAF 2017/02/07 15:09 UTC NOAA

TAF
AMD KDWH 071507Z 0715/0812 23010KT P6SM BKN015
TEMPO 0715/0719 SCT015
FM071900 25010KT P6SM SCT025
FM080100 22005KT P6SM SCT250
TEMPO 0807/0809 3SM BR BKN013
FM080900 VRB03KT 2SM BR OVC008


Example: see airport list